Terminal Aerodrome Forecast
Issued by NWS

Home | Current Version | Previous Version | Graphics & Text | Print | Product List | Glossary Off
Versions: 1 2 3 4 5 6 7 8 9 10 11 12 13 14 15 16 17 18 19

000
FTUS43 KBIS 212118 AAA
TAFMOT
TAF AMD
KMOT 212118Z 2121/2218 27010KT P6SM FEW070
     FM220100 30010KT P6SM FEW060 SCT200
     FM220500 26007KT P6SM FEW140 FEW250
     FM221400 28012KT P6SM FEW100 FEW250
     FM221700 29018G26KT P6SM FEW070 FEW200=

USA.gov is the U.S. government's official web portal to all federal, state and local government web resources and services.